createdAt,value
2023-05-14T00:01:41.180Z,5.50
2023-05-14T00:06:46.271Z,5.40
2023-05-14T00:11:48.113Z,5.20
2023-05-14T00:16:50.038Z,5.00
2023-05-14T00:26:53.262Z,4.90
2023-05-14T00:31:55.073Z,5.10
2023-05-14T00:41:58.369Z,5.00
2023-05-14T00:47:00.424Z,5.80
2023-05-14T00:52:02.349Z,6.30
2023-05-14T00:57:05.053Z,6.00
2023-05-14T01:02:06.790Z,5.60
2023-05-14T01:07:27.770Z,5.40
2023-05-14T01:12:35.583Z,5.80
2023-05-14T01:17:46.659Z,5.40
2023-05-14T01:22:48.470Z,5.60
2023-05-14T01:27:55.607Z,4.90
2023-05-14T01:32:58.939Z,5.80
2023-05-14T01:38:01.440Z,5.80
2023-05-14T01:43:04.105Z,6.00
2023-05-14T01:48:05.829Z,5.30
2023-05-14T01:53:07.661Z,5.70
2023-05-14T01:58:09.332Z,5.80
2023-05-14T02:03:11.067Z,5.20
2023-05-14T02:08:12.837Z,4.20
2023-05-14T02:13:15.357Z,5.60
2023-05-14T02:23:20.640Z,5.40
2023-05-14T02:28:27.575Z,5.00
2023-05-14T02:33:29.953Z,5.00
2023-05-14T02:38:36.233Z,5.00
2023-05-14T02:43:40.163Z,5.30
2023-05-14T02:48:42.755Z,8.50
2023-05-14T02:53:44.535Z,7.40
2023-05-14T02:58:46.105Z,4.90
2023-05-14T03:03:47.796Z,5.10
2023-05-14T03:08:49.968Z,4.80
2023-05-14T03:13:51.641Z,5.20
2023-05-14T03:18:53.566Z,4.70
2023-05-14T03:28:56.757Z,5.30
2023-05-14T03:33:58.374Z,5.30
2023-05-14T03:39:00.148Z,5.00
2023-05-14T03:44:01.915Z,5.10
2023-05-14T03:49:03.636Z,5.10
2023-05-14T03:54:05.647Z,5.70
2023-05-14T03:59:07.328Z,5.20
2023-05-14T04:04:09.133Z,5.80
2023-05-14T04:09:10.885Z,5.70
2023-05-14T04:14:12.640Z,5.20
2023-05-14T04:19:14.943Z,5.80
2023-05-14T04:24:17.269Z,5.50
2023-05-14T04:29:19.202Z,5.10
2023-05-14T04:34:21.074Z,5.40
2023-05-14T04:39:22.729Z,5.90
2023-05-14T04:44:25.575Z,5.20
2023-05-14T04:54:29.851Z,5.50
2023-05-14T04:59:31.684Z,5.70
2023-05-14T05:04:33.359Z,5.00
2023-05-14T05:09:35.042Z,6.30
2023-05-14T05:14:36.719Z,5.60
2023-05-14T05:24:47.068Z,5.60
2023-05-14T05:29:50.340Z,7.60
2023-05-14T05:34:52.038Z,5.70
2023-05-14T05:44:55.587Z,5.40
2023-05-14T05:49:57.233Z,6.20
2023-05-14T05:54:59.116Z,5.80
2023-05-14T06:00:00.792Z,6.20
2023-05-14T06:10:04.714Z,6.10
2023-05-14T06:15:07.355Z,5.70
2023-05-14T06:20:09.735Z,5.70
2023-05-14T06:25:11.829Z,5.20
2023-05-14T06:30:14.185Z,4.60
2023-05-14T06:35:16.085Z,5.00
2023-05-14T06:40:18.785Z,4.90
2023-05-14T06:45:21.485Z,4.60
2023-05-14T06:50:23.615Z,4.10
2023-05-14T06:55:25.645Z,3.60
2023-05-14T07:00:28.237Z,3.20
2023-05-14T07:05:30.735Z,3.20
2023-05-14T07:10:34.101Z,3.40
2023-05-14T07:15:36.136Z,3.20
2023-05-14T07:20:37.909Z,3.00
2023-05-14T07:25:39.579Z,2.70
2023-05-14T07:30:41.256Z,3.20
2023-05-14T07:35:49.788Z,3.00
2023-05-14T07:40:51.562Z,2.70
2023-05-14T07:45:53.236Z,3.10
2023-05-14T07:50:55.009Z,2.70
2023-05-14T07:55:56.800Z,2.90
2023-05-14T08:00:58.570Z,2.50
2023-05-14T08:06:00.229Z,2.60
2023-05-14T08:11:03.373Z,3.10
2023-05-14T08:16:05.733Z,2.60
2023-05-14T08:21:07.386Z,2.40
2023-05-14T08:26:09.296Z,3.00
2023-05-14T08:31:10.992Z,2.40
2023-05-14T08:36:12.944Z,2.60
2023-05-14T08:41:15.335Z,2.30
2023-05-14T08:46:17.416Z,2.80
2023-05-14T08:51:19.091Z,2.70
2023-05-14T08:56:20.865Z,3.10
2023-05-14T09:01:22.974Z,2.60
2023-05-14T09:06:24.824Z,2.40
2023-05-14T09:11:26.696Z,2.50
2023-05-14T09:16:28.541Z,2.10
2023-05-14T09:21:32.823Z,2.20
2023-05-14T09:26:35.456Z,2.30
2023-05-14T09:31:37.316Z,2.30
2023-05-14T09:36:38.928Z,2.10
2023-05-14T09:41:40.635Z,2.60
2023-05-14T09:46:42.643Z,3.10
2023-05-14T09:51:44.585Z,3.60
2023-05-14T09:56:46.288Z,3.90
2023-05-14T10:01:47.939Z,5.60
2023-05-14T10:06:50.660Z,2.00
2023-05-14T10:11:53.647Z,3.80
2023-05-14T10:16:56.222Z,2.20
2023-05-14T10:22:02.682Z,1.80
2023-05-14T10:27:04.997Z,2.30
2023-05-14T10:32:09.998Z,1.60
2023-05-14T10:37:21.886Z,2.20
2023-05-14T10:42:37.169Z,3.10
2023-05-14T10:47:40.102Z,2.40
2023-05-14T10:52:43.022Z,1.90
2023-05-14T10:57:45.688Z,2.50
2023-05-14T11:02:47.483Z,2.70
2023-05-14T11:07:49.837Z,3.10
2023-05-14T11:12:51.979Z,2.90
2023-05-14T11:17:53.905Z,2.00
2023-05-14T11:22:55.781Z,2.40
2023-05-14T11:27:57.457Z,9.80
2023-05-14T11:33:01.149Z,12.00
2023-05-14T11:38:03.743Z,4.50
2023-05-14T11:43:05.554Z,7.50
2023-05-14T11:48:13.351Z,3.10
2023-05-14T11:53:35.539Z,15.90
2023-05-14T11:58:37.417Z,5.70
2023-05-14T12:03:42.117Z,2.30
2023-05-14T12:08:43.946Z,1.80
2023-05-14T12:13:45.691Z,2.10
2023-05-14T12:18:47.384Z,1.90
2023-05-14T12:23:48.994Z,2.90
2023-05-14T12:28:50.721Z,3.20
2023-05-14T12:33:52.590Z,4.60
2023-05-14T12:38:59.235Z,2.30
2023-05-14T12:44:01.075Z,2.20
2023-05-14T12:49:02.951Z,2.50
2023-05-14T12:54:04.653Z,2.30
2023-05-14T12:59:06.399Z,3.20
2023-05-14T13:04:10.388Z,3.10
2023-05-14T13:09:12.100Z,2.90
2023-05-14T13:14:13.977Z,2.20
2023-05-14T13:19:16.012Z,1.70
2023-05-14T13:24:18.047Z,2.10
2023-05-14T13:29:22.168Z,2.10
2023-05-14T13:34:25.982Z,2.60
2023-05-14T13:39:28.004Z,2.00
2023-05-14T13:44:29.846Z,2.30
2023-05-14T13:49:32.764Z,2.40
2023-05-14T13:54:34.523Z,3.00
2023-05-14T13:59:36.197Z,2.80
2023-05-14T14:04:37.901Z,2.50
2023-05-14T14:09:39.623Z,2.40
2023-05-14T14:14:41.424Z,3.00
2023-05-14T14:19:43.075Z,2.90
2023-05-14T14:24:45.003Z,2.50
2023-05-14T14:29:46.751Z,2.60
2023-05-14T14:34:48.527Z,2.70
2023-05-14T14:39:50.224Z,3.40
2023-05-14T14:44:51.868Z,2.00
2023-05-14T14:49:53.557Z,2.70
2023-05-14T14:54:55.538Z,3.10
2023-05-14T14:59:57.130Z,2.50
2023-05-14T15:04:58.894Z,2.70
2023-05-14T15:10:00.648Z,2.90
2023-05-14T15:15:02.337Z,2.80
2023-05-14T15:20:04.622Z,3.00
2023-05-14T15:25:06.901Z,2.50
2023-05-14T15:30:09.318Z,2.80
2023-05-14T15:35:11.168Z,2.70
2023-05-14T15:40:13.059Z,2.90
2023-05-14T15:45:14.766Z,3.10
2023-05-14T15:50:16.685Z,2.80
2023-05-14T15:55:18.482Z,3.40
2023-05-14T16:00:20.580Z,5.60
2023-05-14T16:05:24.565Z,4.60
2023-05-14T16:10:26.561Z,6.10
2023-05-14T16:15:28.764Z,4.10
2023-05-14T16:20:30.737Z,3.30
2023-05-14T16:25:32.760Z,2.70
2023-05-14T16:30:34.472Z,3.80
2023-05-14T16:35:36.178Z,3.80
2023-05-14T16:40:37.825Z,3.00
2023-05-14T16:45:39.480Z,3.60
2023-05-14T16:50:41.207Z,3.00
2023-05-14T16:55:42.831Z,3.80
2023-05-14T17:00:44.641Z,4.30
2023-05-14T17:05:46.389Z,3.90
2023-05-14T17:10:48.279Z,3.90
2023-05-14T17:15:50.322Z,4.60
2023-05-14T17:20:52.138Z,5.50
2023-05-14T17:25:53.910Z,5.30
2023-05-14T17:30:56.513Z,4.90
2023-05-14T17:35:59.478Z,6.10
2023-05-14T17:41:02.078Z,5.90
2023-05-14T17:46:04.499Z,8.90
2023-05-14T17:51:06.100Z,6.60
2023-05-14T17:56:07.954Z,5.70
2023-05-14T18:01:09.845Z,4.20
2023-05-14T18:06:11.744Z,5.00
2023-05-14T18:11:13.638Z,4.40
2023-05-14T18:16:16.752Z,3.80
2023-05-14T18:21:19.231Z,3.30
2023-05-14T18:26:21.187Z,3.10
2023-05-14T18:31:23.197Z,5.00
2023-05-14T18:36:25.246Z,5.20
2023-05-14T18:41:27.226Z,2.50
2023-05-14T18:46:29.866Z,2.30
2023-05-14T18:51:31.699Z,3.00
2023-05-14T18:56:33.781Z,4.70
2023-05-14T19:01:35.499Z,3.20
2023-05-14T19:06:37.226Z,2.40
2023-05-14T19:11:39.006Z,3.00
2023-05-14T19:16:41.090Z,3.30
2023-05-14T19:21:42.761Z,2.90
2023-05-14T19:26:44.475Z,3.70
2023-05-14T19:31:50.461Z,2.30
2023-05-14T19:36:55.056Z,2.50
2023-05-14T19:41:56.831Z,3.30
2023-05-14T19:46:58.528Z,4.30
2023-05-14T19:52:00.270Z,2.10
2023-05-14T19:57:01.945Z,3.10
2023-05-14T20:02:03.743Z,2.30
2023-05-14T20:07:05.700Z,2.00
2023-05-14T20:12:08.103Z,2.00
2023-05-14T20:17:10.207Z,1.70
2023-05-14T20:22:12.393Z,1.70
2023-05-14T20:27:14.746Z,1.60
2023-05-14T20:32:16.315Z,1.90
2023-05-14T20:37:18.107Z,1.60
2023-05-14T20:42:19.987Z,1.80
2023-05-14T20:47:24.969Z,1.90
2023-05-14T20:52:29.060Z,1.50
2023-05-14T20:57:32.181Z,2.00
2023-05-14T21:02:36.179Z,1.90
2023-05-14T21:07:38.184Z,1.90
2023-05-14T21:12:40.126Z,2.00
2023-05-14T21:17:44.609Z,2.20
2023-05-14T21:22:46.483Z,1.70
2023-05-14T21:27:48.251Z,1.90
2023-05-14T21:32:50.256Z,2.40
2023-05-14T21:37:53.538Z,2.10
2023-05-14T21:42:55.218Z,2.00
2023-05-14T21:47:56.994Z,2.10
2023-05-14T21:52:58.775Z,2.30
2023-05-14T21:58:00.522Z,2.40
2023-05-14T22:03:02.386Z,2.30
2023-05-14T22:08:04.914Z,2.70
2023-05-14T22:13:06.698Z,2.60
2023-05-14T22:18:08.491Z,2.70
2023-05-14T22:23:10.162Z,2.50
2023-05-14T22:28:11.921Z,2.40
2023-05-14T22:33:14.137Z,2.60
2023-05-14T22:38:15.974Z,2.50
2023-05-14T22:43:18.077Z,2.60
2023-05-14T22:48:20.042Z,2.60
2023-05-14T22:53:22.748Z,2.60
2023-05-14T22:58:25.643Z,2.70
2023-05-14T23:03:27.850Z,2.40
2023-05-14T23:08:29.908Z,2.80
2023-05-14T23:13:31.860Z,2.50
2023-05-14T23:18:34.635Z,2.60
2023-05-14T23:23:36.633Z,2.30
2023-05-14T23:28:38.431Z,3.10
2023-05-14T23:33:40.227Z,2.40
2023-05-14T23:38:41.996Z,2.70
2023-05-14T23:43:43.668Z,2.50
2023-05-14T23:48:46.369Z,2.60
2023-05-14T23:58:49.546Z,2.30
